createdAt,value
2018-11-03T00:00:37.217Z,8.80
2018-11-03T00:01:37.217Z,8.40
2018-11-03T00:02:37.232Z,8.60
2018-11-03T00:03:37.247Z,8.30
2018-11-03T00:04:37.260Z,8.20
2018-11-03T00:05:37.354Z,8.50
2018-11-03T00:06:37.264Z,9.00
2018-11-03T00:07:37.274Z,8.10
2018-11-03T00:08:37.284Z,8.40
2018-11-03T00:09:37.298Z,8.10
2018-11-03T00:10:37.306Z,8.70
2018-11-03T00:12:37.321Z,8.40
2018-11-03T00:13:37.813Z,8.70
2018-11-03T00:14:37.955Z,9.40
2018-11-03T00:15:37.773Z,9.20
2018-11-03T00:16:37.361Z,8.50
2018-11-03T00:17:37.373Z,9.20
2018-11-03T00:18:37.429Z,9.20
2018-11-03T00:19:37.462Z,9.30
2018-11-03T00:20:37.405Z,9.50
2018-11-03T00:21:37.406Z,9.40
2018-11-03T00:22:37.416Z,8.60
2018-11-03T00:23:37.430Z,9.20
2018-11-03T00:24:37.435Z,8.50
2018-11-03T00:25:37.452Z,8.30
2018-11-03T00:26:37.453Z,8.60
2018-11-03T00:27:37.469Z,8.30
2018-11-03T00:28:37.484Z,8.30
2018-11-03T00:29:37.534Z,7.90
2018-11-03T00:30:37.494Z,8.00
2018-11-03T00:31:37.501Z,8.00
2018-11-03T00:32:37.520Z,8.30
2018-11-03T00:33:37.523Z,8.00
2018-11-03T00:34:37.529Z,8.10
2018-11-03T00:35:37.542Z,8.30
2018-11-03T00:36:37.549Z,8.60
2018-11-03T00:37:37.629Z,8.10
2018-11-03T00:38:37.567Z,8.50
2018-11-03T00:39:37.580Z,8.30
2018-11-03T00:40:37.661Z,8.20
2018-11-03T00:42:37.705Z,8.30
2018-11-03T00:43:40.139Z,8.20
2018-11-03T00:44:37.665Z,8.60
2018-11-03T00:46:38.300Z,8.30
2018-11-03T00:47:37.650Z,8.70
2018-11-03T00:48:37.693Z,9.50
2018-11-03T00:49:37.708Z,8.40
2018-11-03T00:50:37.681Z,8.80
2018-11-03T00:51:37.694Z,8.90
2018-11-03T00:52:37.704Z,9.00
2018-11-03T00:53:37.709Z,9.00
2018-11-03T00:54:37.717Z,9.40
2018-11-03T00:55:37.729Z,8.90
2018-11-03T00:56:37.741Z,9.10
2018-11-03T00:57:37.749Z,8.70
2018-11-03T00:58:37.757Z,8.90
2018-11-03T00:59:37.765Z,9.30
2018-11-03T01:00:37.844Z,8.80
2018-11-03T01:01:37.788Z,9.70
2018-11-03T01:02:37.800Z,9.20
2018-11-03T01:03:37.804Z,9.00
2018-11-03T01:04:37.813Z,9.70
2018-11-03T01:05:37.823Z,8.90
2018-11-03T01:06:37.833Z,9.00
2018-11-03T01:07:37.844Z,9.30
2018-11-03T01:08:37.860Z,8.80
2018-11-03T01:09:37.879Z,9.00
2018-11-03T01:10:37.870Z,9.30
2018-11-03T01:11:37.876Z,9.40
2018-11-03T01:12:37.896Z,9.20
2018-11-03T01:13:38.435Z,8.50
2018-11-03T01:16:38.190Z,9.20
2018-11-03T01:18:38.406Z,9.30
2018-11-03T01:19:37.950Z,9.40
2018-11-03T01:20:37.996Z,9.50
2018-11-03T01:21:37.980Z,9.30
2018-11-03T01:22:38.003Z,9.60
2018-11-03T01:23:38.037Z,10.00
2018-11-03T01:24:38.000Z,9.50
2018-11-03T01:25:38.007Z,10.00
2018-11-03T01:26:38.015Z,10.20
2018-11-03T01:27:38.036Z,10.30
2018-11-03T01:28:38.035Z,10.40
2018-11-03T01:29:38.068Z,10.90
2018-11-03T01:30:38.055Z,10.60
2018-11-03T01:31:38.062Z,11.00
2018-11-03T01:32:38.213Z,11.30
2018-11-03T01:33:38.109Z,11.60
2018-11-03T01:34:38.090Z,10.50
2018-11-03T01:35:38.102Z,11.20
2018-11-03T01:36:38.107Z,11.70
2018-11-03T01:37:38.118Z,10.90
2018-11-03T01:38:38.127Z,11.00
2018-11-03T01:39:38.134Z,11.50
2018-11-03T01:40:38.165Z,11.30
2018-11-03T01:41:38.265Z,11.30
2018-11-03T01:42:38.293Z,12.20
2018-11-03T01:43:38.171Z,11.40
2018-11-03T01:44:38.182Z,11.60
2018-11-03T01:45:38.215Z,11.60
2018-11-03T01:47:38.226Z,11.70
2018-11-03T01:49:38.231Z,11.60
2018-11-03T01:50:38.237Z,11.60
2018-11-03T01:51:38.250Z,11.80
2018-11-03T01:52:38.266Z,12.00
2018-11-03T01:53:38.276Z,11.70
2018-11-03T01:54:38.292Z,12.20
2018-11-03T01:55:38.285Z,11.80
2018-11-03T01:56:38.296Z,11.40
2018-11-03T01:57:38.317Z,11.90
2018-11-03T01:58:38.313Z,11.70
2018-11-03T01:59:38.327Z,11.50
2018-11-03T02:00:38.330Z,11.50
2018-11-03T02:01:38.337Z,11.30
2018-11-03T02:02:38.355Z,12.30
2018-11-03T02:03:38.359Z,12.50
2018-11-03T02:04:38.366Z,11.90
2018-11-03T02:05:38.384Z,12.60
2018-11-03T02:06:38.384Z,11.70
2018-11-03T02:07:38.395Z,12.00
2018-11-03T02:08:38.405Z,11.50
2018-11-03T02:09:38.418Z,11.70
2018-11-03T02:10:38.423Z,11.90
2018-11-03T02:11:38.553Z,11.20
2018-11-03T02:12:38.451Z,10.40
2018-11-03T02:13:38.447Z,11.90
2018-11-03T02:14:38.459Z,11.70
2018-11-03T02:15:38.465Z,11.80
2018-11-03T02:16:38.588Z,11.30
2018-11-03T02:17:38.709Z,11.30
2018-11-03T02:18:38.734Z,11.20
2018-11-03T02:20:38.756Z,10.70
2018-11-03T02:22:38.529Z,11.30
2018-11-03T02:23:38.604Z,11.60
2018-11-03T02:24:38.547Z,11.70
2018-11-03T02:25:38.577Z,11.60
2018-11-03T02:26:38.565Z,11.50
2018-11-03T02:27:38.574Z,11.30
2018-11-03T02:28:38.581Z,12.00
2018-11-03T02:29:38.606Z,11.80
2018-11-03T02:30:38.603Z,11.40
2018-11-03T02:31:38.608Z,12.10
2018-11-03T02:32:38.626Z,12.10
2018-11-03T02:33:38.662Z,11.80
2018-11-03T02:34:38.634Z,11.60
2018-11-03T02:35:38.734Z,12.00
2018-11-03T02:36:38.662Z,12.20
2018-11-03T02:37:38.668Z,11.80
2018-11-03T02:38:38.672Z,11.80
2018-11-03T02:39:38.684Z,11.90
2018-11-03T02:40:38.694Z,11.80
2018-11-03T02:41:38.721Z,12.00
2018-11-03T02:42:38.721Z,11.80
2018-11-03T02:43:38.738Z,11.50
2018-11-03T02:44:38.737Z,12.00
2018-11-03T02:45:38.803Z,12.00
2018-11-03T02:46:38.791Z,11.10
2018-11-03T02:48:38.863Z,11.20
2018-11-03T02:49:39.129Z,11.30
2018-11-03T02:50:39.155Z,11.30
2018-11-03T02:51:40.145Z,11.90
2018-11-03T02:52:38.911Z,11.50
2018-11-03T02:53:38.807Z,11.90
2018-11-03T02:54:38.814Z,11.10
2018-11-03T02:55:38.831Z,10.70
2018-11-03T02:56:38.844Z,11.60
2018-11-03T02:57:38.847Z,11.30
2018-11-03T02:58:38.853Z,11.70
2018-11-03T02:59:38.887Z,11.80
2018-11-03T03:00:38.873Z,11.70
2018-11-03T03:01:38.882Z,12.20
2018-11-03T03:02:38.889Z,12.30
2018-11-03T03:03:38.906Z,12.20
2018-11-03T03:04:38.917Z,12.30
2018-11-03T03:05:38.924Z,12.10
2018-11-03T03:06:38.934Z,12.10
2018-11-03T03:07:38.934Z,12.40
2018-11-03T03:08:38.961Z,12.10
2018-11-03T03:09:38.971Z,12.10
2018-11-03T03:10:38.961Z,12.30
2018-11-03T03:11:38.977Z,11.90
2018-11-03T03:12:38.978Z,12.30
2018-11-03T03:13:38.986Z,12.60
2018-11-03T03:14:39.002Z,13.10
2018-11-03T03:15:39.015Z,12.50
2018-11-03T03:16:39.117Z,12.00
2018-11-03T03:17:39.156Z,12.50
2018-11-03T03:18:39.037Z,12.80
2018-11-03T03:22:39.951Z,12.80
2018-11-03T03:23:39.086Z,13.50
2018-11-03T03:24:39.083Z,13.50
2018-11-03T03:25:39.094Z,13.50
2018-11-03T03:26:39.105Z,13.20
2018-11-03T03:27:39.111Z,12.90
2018-11-03T03:28:39.210Z,12.70
2018-11-03T03:29:39.244Z,12.70
2018-11-03T03:30:39.164Z,13.10
2018-11-03T03:31:39.147Z,12.70
2018-11-03T03:32:39.161Z,12.80
2018-11-03T03:33:39.162Z,13.10
2018-11-03T03:34:39.185Z,13.20
2018-11-03T03:35:39.751Z,12.60
2018-11-03T03:36:39.197Z,12.60
2018-11-03T03:37:39.200Z,11.70
2018-11-03T03:38:39.247Z,11.60
2018-11-03T03:39:39.222Z,12.20
2018-11-03T03:40:39.251Z,12.20
2018-11-03T03:41:39.235Z,11.30
2018-11-03T03:42:39.244Z,11.50
2018-11-03T03:43:39.252Z,11.40
2018-11-03T03:45:39.271Z,11.70
2018-11-03T03:46:39.282Z,11.40
2018-11-03T03:47:39.309Z,10.80
2018-11-03T03:48:39.297Z,11.40
2018-11-03T03:49:39.314Z,11.40
2018-11-03T03:50:39.320Z,11.40
2018-11-03T03:51:39.679Z,10.80
2018-11-03T03:52:40.123Z,11.20
2018-11-03T03:53:39.489Z,11.40
2018-11-03T03:54:39.349Z,11.60
2018-11-03T03:55:39.359Z,10.60
2018-11-03T03:56:39.382Z,11.30
2018-11-03T03:57:39.380Z,11.20
2018-11-03T03:58:39.390Z,11.40
2018-11-03T03:59:39.396Z,10.90
2018-11-03T04:00:39.409Z,11.20
2018-11-03T04:01:39.438Z,11.20
2018-11-03T04:02:39.431Z,11.20
2018-11-03T04:03:39.439Z,11.20
2018-11-03T04:04:39.448Z,10.30
2018-11-03T04:05:39.452Z,10.50
2018-11-03T04:06:39.456Z,11.30
2018-11-03T04:07:39.462Z,10.10
2018-11-03T04:08:39.475Z,10.90
2018-11-03T04:09:39.486Z,10.90
2018-11-03T04:10:39.561Z,10.90
2018-11-03T04:11:39.504Z,11.00
2018-11-03T04:12:39.546Z,10.90
2018-11-03T04:13:39.516Z,10.70
2018-11-03T04:14:39.530Z,11.60
2018-11-03T04:15:39.564Z,10.80
2018-11-03T04:16:39.546Z,11.50
2018-11-03T04:17:39.552Z,10.90
2018-11-03T04:18:39.565Z,10.70
2018-11-03T04:19:39.579Z,11.40
2018-11-03T04:20:39.620Z,10.90
2018-11-03T04:21:40.059Z,10.80
2018-11-03T04:22:39.711Z,11.20
2018-11-03T04:23:40.001Z,11.30
2018-11-03T04:24:39.751Z,11.00
2018-11-03T04:25:39.688Z,11.40
2018-11-03T04:26:39.692Z,11.30
2018-11-03T04:27:39.649Z,10.60
2018-11-03T04:28:39.667Z,11.30
2018-11-03T04:29:39.663Z,11.70
2018-11-03T04:30:39.669Z,11.10
2018-11-03T04:31:39.682Z,10.80
2018-11-03T04:32:39.692Z,10.90
2018-11-03T04:33:39.693Z,11.30
2018-11-03T04:34:39.699Z,10.90
2018-11-03T04:35:39.709Z,11.20
2018-11-03T04:36:39.715Z,11.40
2018-11-03T04:37:39.721Z,11.30
2018-11-03T04:38:39.733Z,10.90
2018-11-03T04:39:39.739Z,11.30
2018-11-03T04:40:39.750Z,11.40
2018-11-03T04:41:39.757Z,11.40
2018-11-03T04:42:39.764Z,11.30
2018-11-03T04:43:39.774Z,11.60
2018-11-03T04:44:39.782Z,11.40
2018-11-03T04:45:39.928Z,11.50
2018-11-03T04:46:39.805Z,11.40
2018-11-03T04:47:39.819Z,11.90
2018-11-03T04:48:39.820Z,11.40
2018-11-03T04:49:39.830Z,11.90
2018-11-03T04:50:39.836Z,11.20
2018-11-03T04:51:39.845Z,11.40
2018-11-03T04:53:39.865Z,11.60
2018-11-03T04:56:40.725Z,11.60
2018-11-03T04:57:40.776Z,10.80
2018-11-03T04:58:39.912Z,11.20
2018-11-03T04:59:39.926Z,11.40
2018-11-03T05:00:39.924Z,12.00
2018-11-03T05:01:39.932Z,11.60
2018-11-03T05:02:39.941Z,11.10
2018-11-03T05:03:39.953Z,11.60
2018-11-03T05:04:39.981Z,11.40
2018-11-03T05:05:39.967Z,11.50
2018-11-03T05:06:39.975Z,11.20
2018-11-03T05:07:39.987Z,11.00
2018-11-03T05:08:39.996Z,11.30
2018-11-03T05:09:40.047Z,11.30
2018-11-03T05:10:40.018Z,11.70
2018-11-03T05:11:40.027Z,11.10
2018-11-03T05:12:40.029Z,10.50
2018-11-03T05:13:40.058Z,11.30
2018-11-03T05:14:40.049Z,11.00
2018-11-03T05:15:40.102Z,11.10
2018-11-03T05:16:40.076Z,11.30
2018-11-03T05:17:40.075Z,11.30
2018-11-03T05:18:40.146Z,11.00
2018-11-03T05:19:40.113Z,11.30
2018-11-03T05:20:40.149Z,11.60
2018-11-03T05:21:40.113Z,11.40
2018-11-03T05:22:40.121Z,12.00
2018-11-03T05:23:40.461Z,11.60
2018-11-03T05:24:40.439Z,10.80
2018-11-03T05:26:40.613Z,11.70
2018-11-03T05:28:40.177Z,11.40
2018-11-03T05:29:40.248Z,11.80
2018-11-03T05:30:40.194Z,11.60
2018-11-03T05:31:40.201Z,11.40
2018-11-03T05:32:40.204Z,10.70
2018-11-03T05:33:40.212Z,11.30
2018-11-03T05:34:40.231Z,11.20
2018-11-03T05:35:40.247Z,11.00
2018-11-03T05:36:40.244Z,10.80
2018-11-03T05:37:40.272Z,11.20
2018-11-03T05:38:40.270Z,10.10
2018-11-03T05:39:40.266Z,11.00
2018-11-03T05:40:40.272Z,11.40
2018-11-03T05:41:40.282Z,11.90
2018-11-03T05:42:40.296Z,11.50
2018-11-03T05:43:40.306Z,11.40
2018-11-03T05:44:40.319Z,10.90
2018-11-03T05:45:40.333Z,11.20
2018-11-03T05:46:40.423Z,11.20
2018-11-03T05:47:40.339Z,11.00
2018-11-03T05:48:40.343Z,10.20
2018-11-03T05:49:40.359Z,10.40
2018-11-03T05:50:40.361Z,10.90
2018-11-03T05:51:40.370Z,11.00
2018-11-03T05:52:40.382Z,11.00
2018-11-03T05:53:40.387Z,11.10
2018-11-03T05:54:40.398Z,11.70
2018-11-03T05:55:40.466Z,11.80
2018-11-03T05:56:40.582Z,11.50
2018-11-03T05:57:40.926Z,11.40
2018-11-03T05:58:40.714Z,10.60
2018-11-03T05:59:41.017Z,10.90
2018-11-03T06:00:40.506Z,10.90
2018-11-03T06:01:40.482Z,11.10
2018-11-03T06:02:40.478Z,10.90
2018-11-03T06:03:40.475Z,10.90
2018-11-03T06:04:40.497Z,10.90
2018-11-03T06:05:40.493Z,11.50
2018-11-03T06:06:40.515Z,11.00
2018-11-03T06:07:40.540Z,10.90
2018-11-03T06:08:40.537Z,11.40
2018-11-03T06:09:40.529Z,11.90
2018-11-03T06:10:40.537Z,11.40
2018-11-03T06:11:40.557Z,11.30
2018-11-03T06:12:40.552Z,11.10
2018-11-03T06:13:40.562Z,11.70
2018-11-03T06:14:40.570Z,12.00
2018-11-03T06:15:40.797Z,11.70
2018-11-03T06:16:40.600Z,11.40
2018-11-03T06:17:40.600Z,11.10
2018-11-03T06:18:40.606Z,12.30
2018-11-03T06:19:40.627Z,12.50
2018-11-03T06:20:40.623Z,11.70
2018-11-03T06:21:40.647Z,12.00
2018-11-03T06:22:40.848Z,11.30
2018-11-03T06:23:40.688Z,11.80
2018-11-03T06:24:40.672Z,11.90
2018-11-03T06:25:40.720Z,10.80
2018-11-03T06:26:40.675Z,12.10
2018-11-03T06:27:40.750Z,11.20
2018-11-03T06:28:40.695Z,11.60
2018-11-03T06:29:40.703Z,11.20
2018-11-03T06:31:40.797Z,11.90
2018-11-03T06:32:40.734Z,11.50
2018-11-03T06:33:40.740Z,11.30
2018-11-03T06:34:40.755Z,11.70
2018-11-03T06:35:40.756Z,11.60
2018-11-03T06:36:40.763Z,12.00
2018-11-03T06:37:40.822Z,11.90
2018-11-03T06:38:40.803Z,11.90
2018-11-03T06:39:40.801Z,11.60
2018-11-03T06:40:40.809Z,12.00
2018-11-03T06:41:40.807Z,11.20
2018-11-03T06:42:40.828Z,11.20
2018-11-03T06:43:40.824Z,11.30
2018-11-03T06:44:40.830Z,12.20
2018-11-03T06:45:40.839Z,12.20
2018-11-03T06:46:40.871Z,11.50
2018-11-03T06:47:40.858Z,12.30
2018-11-03T06:48:40.873Z,11.70
2018-11-03T06:49:40.877Z,11.90
2018-11-03T06:50:40.882Z,12.10
2018-11-03T06:52:40.904Z,11.80
2018-11-03T06:53:40.911Z,12.20
2018-11-03T06:54:40.919Z,12.30
2018-11-03T06:55:40.925Z,12.10
2018-11-03T06:56:40.942Z,12.40
2018-11-03T06:57:40.949Z,12.20
2018-11-03T06:58:40.951Z,11.00
2018-11-03T06:59:40.968Z,11.50
2018-11-03T07:00:40.972Z,12.00
2018-11-03T07:03:41.787Z,12.10
2018-11-03T07:04:41.008Z,12.10
2018-11-03T07:05:41.014Z,12.20
2018-11-03T07:06:41.022Z,11.50
2018-11-03T07:07:41.033Z,11.60
2018-11-03T07:08:41.038Z,11.70
2018-11-03T07:09:41.048Z,12.00
2018-11-03T07:10:41.181Z,11.60
2018-11-03T07:11:41.246Z,11.20
2018-11-03T07:12:41.274Z,11.40
2018-11-03T07:13:41.094Z,12.40
2018-11-03T07:14:41.090Z,11.70
2018-11-03T07:15:41.141Z,12.10
2018-11-03T07:16:41.111Z,11.20
2018-11-03T07:17:41.122Z,12.00
2018-11-03T07:18:41.125Z,11.70
2018-11-03T07:19:41.140Z,11.40
2018-11-03T07:21:41.249Z,11.80
2018-11-03T07:22:41.164Z,12.30
2018-11-03T07:23:41.196Z,12.30
2018-11-03T07:24:41.193Z,12.40
2018-11-03T07:25:41.187Z,12.00
2018-11-03T07:26:41.201Z,12.00
2018-11-03T07:27:41.205Z,13.00
2018-11-03T07:28:41.216Z,13.10
2018-11-03T07:29:41.294Z,12.70
2018-11-03T07:31:41.257Z,12.50
2018-11-03T07:32:41.462Z,12.70
2018-11-03T07:33:41.259Z,12.60
2018-11-03T07:34:41.327Z,13.20
2018-11-03T07:35:41.279Z,12.30
2018-11-03T07:36:41.287Z,12.80
2018-11-03T07:37:41.299Z,12.70
2018-11-03T07:38:41.446Z,12.20
2018-11-03T07:39:41.320Z,12.30
2018-11-03T07:40:41.349Z,13.60
2018-11-03T07:41:41.393Z,12.70
2018-11-03T07:42:41.433Z,12.30
2018-11-03T07:43:41.491Z,13.00
2018-11-03T07:44:41.373Z,12.80
2018-11-03T07:46:41.430Z,13.00
2018-11-03T07:47:41.699Z,12.00
2018-11-03T07:48:41.425Z,12.30
2018-11-03T07:49:41.475Z,12.80
2018-11-03T07:50:41.417Z,13.20
2018-11-03T07:51:41.424Z,12.80
2018-11-03T07:52:41.453Z,12.00
2018-11-03T07:53:41.777Z,13.20
2018-11-03T07:54:41.488Z,12.60
2018-11-03T07:55:41.462Z,12.80
2018-11-03T07:56:41.467Z,13.00
2018-11-03T07:57:42.424Z,12.80
2018-11-03T07:58:41.486Z,12.80
2018-11-03T07:59:41.501Z,13.10
2018-11-03T08:00:41.655Z,13.00
2018-11-03T08:01:41.516Z,13.30
2018-11-03T08:02:41.523Z,13.30
2018-11-03T08:03:41.535Z,13.10
2018-11-03T08:04:41.575Z,13.90
2018-11-03T08:05:41.709Z,13.80
2018-11-03T08:06:41.562Z,13.80
2018-11-03T08:07:41.573Z,14.10
2018-11-03T08:08:41.583Z,13.90
2018-11-03T08:09:41.592Z,14.40
2018-11-03T08:11:41.799Z,14.80
2018-11-03T08:12:41.618Z,14.80
2018-11-03T08:13:42.403Z,15.40
2018-11-03T08:14:41.789Z,14.60
2018-11-03T08:15:41.674Z,14.70
2018-11-03T08:16:41.724Z,14.90
2018-11-03T08:17:41.665Z,14.80
2018-11-03T08:18:41.673Z,14.20
2018-11-03T08:19:41.685Z,14.20
2018-11-03T08:20:41.729Z,15.40
2018-11-03T08:21:41.756Z,14.30
2018-11-03T08:22:41.714Z,14.90
2018-11-03T08:23:41.786Z,14.90
2018-11-03T08:24:41.733Z,15.50
2018-11-03T08:25:41.746Z,15.20
2018-11-03T08:26:41.754Z,15.20
2018-11-03T08:27:41.780Z,15.30
2018-11-03T08:28:41.783Z,15.60
2018-11-03T08:29:41.778Z,15.90
2018-11-03T08:30:41.837Z,14.70
2018-11-03T08:31:41.974Z,15.00
2018-11-03T08:33:41.922Z,14.80
2018-11-03T08:34:41.827Z,14.60
2018-11-03T08:35:41.835Z,14.70
2018-11-03T08:36:41.863Z,14.50
2018-11-03T08:37:41.853Z,14.10
2018-11-03T08:38:41.879Z,15.00
2018-11-03T08:39:41.917Z,14.80
2018-11-03T08:40:41.882Z,14.80
2018-11-03T08:41:41.890Z,15.70
2018-11-03T08:42:41.898Z,15.00
2018-11-03T08:43:41.908Z,15.50
2018-11-03T08:44:41.919Z,15.60
2018-11-03T08:45:41.933Z,15.60
2018-11-03T08:46:41.941Z,15.20
2018-11-03T08:47:41.949Z,15.30
2018-11-03T08:48:42.030Z,14.70
2018-11-03T08:49:41.967Z,15.50
2018-11-03T08:50:42.035Z,14.70
2018-11-03T08:51:41.988Z,15.20
2018-11-03T08:52:41.994Z,15.10
2018-11-03T08:53:42.004Z,15.20
2018-11-03T08:54:42.014Z,14.50
2018-11-03T08:55:42.024Z,14.50
2018-11-03T08:56:42.045Z,14.80
2018-11-03T08:57:42.043Z,15.20
2018-11-03T08:58:42.052Z,15.40
2018-11-03T08:59:42.353Z,15.40
2018-11-03T09:00:42.205Z,15.30
2018-11-03T09:01:42.373Z,15.00
2018-11-03T09:02:42.676Z,15.30
2018-11-03T09:03:42.134Z,15.10
2018-11-03T09:04:42.124Z,15.00
2018-11-03T09:05:42.151Z,14.70
2018-11-03T09:06:42.131Z,15.20
2018-11-03T09:07:42.145Z,15.60
2018-11-03T09:08:42.152Z,15.50
2018-11-03T09:09:42.157Z,15.40
2018-11-03T09:10:42.168Z,15.90
2018-11-03T09:11:42.180Z,16.30
2018-11-03T09:12:42.188Z,15.90
2018-11-03T09:13:42.197Z,15.90
2018-11-03T09:14:42.252Z,15.90
2018-11-03T09:15:42.216Z,16.20
2018-11-03T09:16:42.229Z,16.00
2018-11-03T09:17:42.237Z,16.30
2018-11-03T09:18:42.245Z,17.20
2018-11-03T09:19:42.270Z,15.90
2018-11-03T09:20:42.287Z,16.70
2018-11-03T09:21:42.355Z,16.70
2018-11-03T09:22:42.350Z,15.90
2018-11-03T09:23:42.295Z,16.20
2018-11-03T09:24:42.306Z,16.70
2018-11-03T09:25:42.315Z,16.10
2018-11-03T09:26:42.328Z,16.10
2018-11-03T09:27:42.345Z,16.40
2018-11-03T09:28:42.361Z,16.20
2018-11-03T09:29:42.406Z,15.80
2018-11-03T09:30:42.428Z,16.20
2018-11-03T09:31:42.561Z,16.50
2018-11-03T09:32:42.418Z,15.70
2018-11-03T09:33:43.005Z,15.90
2018-11-03T09:34:43.054Z,16.60
2018-11-03T09:35:42.419Z,15.60
2018-11-03T09:36:42.471Z,15.80
2018-11-03T09:37:42.436Z,15.80
2018-11-03T09:38:42.536Z,16.40
2018-11-03T09:39:42.527Z,15.90
2018-11-03T09:40:42.468Z,16.90
2018-11-03T09:41:42.475Z,15.50
2018-11-03T09:42:42.486Z,15.70
2018-11-03T09:43:42.494Z,16.10
2018-11-03T09:44:42.553Z,15.60
2018-11-03T09:45:42.938Z,15.80
2018-11-03T09:46:42.527Z,15.90
2018-11-03T09:47:42.536Z,16.20
2018-11-03T09:48:42.550Z,16.20
2018-11-03T09:49:42.573Z,16.10
2018-11-03T09:50:42.616Z,16.00
2018-11-03T09:51:42.577Z,16.10
2018-11-03T09:52:42.586Z,15.30
2018-11-03T09:53:42.604Z,15.40
2018-11-03T09:54:42.606Z,15.50
2018-11-03T09:55:42.617Z,17.10
2018-11-03T09:56:42.678Z,16.50
2018-11-03T09:57:42.640Z,16.10
2018-11-03T09:58:42.647Z,15.40
2018-11-03T09:59:42.661Z,17.00
2018-11-03T10:00:42.700Z,16.80
2018-11-03T10:01:42.677Z,16.80
2018-11-03T10:02:42.738Z,16.30
2018-11-03T10:03:42.700Z,16.70
2018-11-03T10:04:42.761Z,15.90
2018-11-03T10:05:42.752Z,16.30
2018-11-03T10:06:42.806Z,16.30
2018-11-03T10:07:42.737Z,16.20
2018-11-03T10:08:42.748Z,16.90
2018-11-03T10:09:42.796Z,17.70
2018-11-03T10:10:42.763Z,17.90
2018-11-03T10:11:42.775Z,17.20
2018-11-03T10:12:42.784Z,16.90
2018-11-03T10:13:42.798Z,16.20
2018-11-03T10:14:42.819Z,16.10
2018-11-03T10:15:42.846Z,16.10
2018-11-03T10:16:42.825Z,16.60
2018-11-03T10:17:43.485Z,16.00
2018-11-03T10:18:42.917Z,16.10
2018-11-03T10:19:42.869Z,17.00
2018-11-03T10:20:42.888Z,15.90
2018-11-03T10:21:42.876Z,16.70
2018-11-03T10:22:42.936Z,16.50
2018-11-03T10:23:42.894Z,16.90
2018-11-03T10:24:42.911Z,16.60
2018-11-03T10:25:42.917Z,16.60
2018-11-03T10:26:42.926Z,15.90
2018-11-03T10:27:42.936Z,15.90
2018-11-03T10:28:42.948Z,16.60
2018-11-03T10:29:43.688Z,16.50
2018-11-03T10:30:42.969Z,15.90
2018-11-03T10:31:43.043Z,15.90
2018-11-03T10:32:43.051Z,16.40
2018-11-03T10:33:43.006Z,16.40
2018-11-03T10:34:43.078Z,16.30
2018-11-03T10:35:43.185Z,15.30
2018-11-03T10:36:43.055Z,15.40
2018-11-03T10:37:43.043Z,16.30
2018-11-03T10:38:43.053Z,15.60
2018-11-03T10:39:43.094Z,15.40
2018-11-03T10:40:43.074Z,15.90
2018-11-03T10:41:43.081Z,16.20
2018-11-03T10:42:43.093Z,17.10
2018-11-03T10:43:43.104Z,16.80
2018-11-03T10:44:43.117Z,16.10
2018-11-03T10:45:43.124Z,15.90
2018-11-03T10:46:43.138Z,15.70
2018-11-03T10:47:43.155Z,16.50
2018-11-03T10:48:43.155Z,15.60
2018-11-03T10:49:43.166Z,16.50
2018-11-03T10:50:43.175Z,16.50
2018-11-03T10:51:43.193Z,15.60
2018-11-03T10:52:43.198Z,16.10
2018-11-03T10:53:43.308Z,15.10
2018-11-03T10:54:43.224Z,15.30
2018-11-03T10:55:43.230Z,16.30
2018-11-03T10:56:44.181Z,16.10
2018-11-03T10:57:43.251Z,15.10
2018-11-03T10:58:43.272Z,15.90
2018-11-03T10:59:43.321Z,16.40
2018-11-03T11:00:43.351Z,16.10
2018-11-03T11:01:43.412Z,15.50
2018-11-03T11:02:43.335Z,16.10
2018-11-03T11:03:43.528Z,16.20
2018-11-03T11:04:43.340Z,16.50
2018-11-03T11:05:43.335Z,15.70
2018-11-03T11:06:43.362Z,16.20
2018-11-03T11:07:43.354Z,16.10
2018-11-03T11:08:43.543Z,15.90
2018-11-03T11:09:43.381Z,15.70
2018-11-03T11:10:43.390Z,15.70
2018-11-03T11:11:43.398Z,16.20
2018-11-03T11:12:43.461Z,15.80
2018-11-03T11:13:43.418Z,15.30
2018-11-03T11:14:43.432Z,15.30
2018-11-03T11:15:43.504Z,14.40
2018-11-03T11:16:43.495Z,15.80
2018-11-03T11:17:43.461Z,15.30
2018-11-03T11:18:43.472Z,15.50
2018-11-03T11:19:43.486Z,15.30
2018-11-03T11:20:43.573Z,16.20
2018-11-03T11:21:43.505Z,15.30
2018-11-03T11:22:43.517Z,14.90
2018-11-03T11:23:43.619Z,14.60
2018-11-03T11:24:43.721Z,14.60
2018-11-03T11:25:43.545Z,15.00
2018-11-03T11:26:43.557Z,14.30
2018-11-03T11:27:43.577Z,15.10
2018-11-03T11:28:43.578Z,14.40
2018-11-03T11:29:43.647Z,15.80
2018-11-03T11:30:43.842Z,14.30
2018-11-03T11:31:43.826Z,14.40
2018-11-03T11:32:43.685Z,14.30
2018-11-03T11:34:43.743Z,14.50
2018-11-03T11:35:44.361Z,15.40
2018-11-03T11:36:43.899Z,14.50
2018-11-03T11:37:43.767Z,15.50
2018-11-03T11:38:43.838Z,15.00
2018-11-03T11:39:43.702Z,14.20
2018-11-03T11:40:43.811Z,15.90
2018-11-03T11:41:43.733Z,14.30
2018-11-03T11:42:43.730Z,14.70
2018-11-03T11:43:43.939Z,14.20
2018-11-03T11:44:43.933Z,14.00
2018-11-03T11:45:44.055Z,13.40
2018-11-03T11:46:43.940Z,14.20
2018-11-03T11:47:43.783Z,13.30
2018-11-03T11:48:43.909Z,12.60
2018-11-03T11:49:44.016Z,12.50
2018-11-03T11:50:43.815Z,13.50
2018-11-03T11:51:43.827Z,13.00
2018-11-03T11:52:43.837Z,13.20
2018-11-03T11:53:43.850Z,12.60
2018-11-03T11:54:43.908Z,11.70
2018-11-03T11:55:43.869Z,12.00
2018-11-03T11:56:43.933Z,12.00
2018-11-03T11:57:43.902Z,11.60
2018-11-03T11:58:43.934Z,11.50
2018-11-03T11:59:43.944Z,11.60
2018-11-03T12:00:43.950Z,11.30
2018-11-03T12:01:43.929Z,12.00
2018-11-03T12:02:43.943Z,11.50
2018-11-03T12:03:44.208Z,11.70
2018-11-03T12:04:44.063Z,11.00
2018-11-03T12:05:44.066Z,11.80
2018-11-03T12:06:44.004Z,11.50
2018-11-03T12:07:44.085Z,11.10
2018-11-03T12:08:44.029Z,11.90
2018-11-03T12:09:44.330Z,11.40
2018-11-03T12:10:44.031Z,11.30
2018-11-03T12:11:44.039Z,11.60
2018-11-03T12:12:44.063Z,11.90
2018-11-03T12:13:44.060Z,11.20
2018-11-03T12:14:44.071Z,12.50
2018-11-03T12:15:44.124Z,12.60
2018-11-03T12:16:44.093Z,12.00
2018-11-03T12:17:44.104Z,12.30
2018-11-03T12:18:44.116Z,12.30
2018-11-03T12:19:44.125Z,13.10
2018-11-03T12:20:44.358Z,13.50
2018-11-03T12:21:44.155Z,12.80
2018-11-03T12:22:44.158Z,12.40
2018-11-03T12:23:44.170Z,12.70
2018-11-03T12:24:44.182Z,12.10
2018-11-03T12:25:44.276Z,12.50
2018-11-03T12:26:44.790Z,11.80
2018-11-03T12:27:44.213Z,11.20
2018-11-03T12:28:44.241Z,10.80
2018-11-03T12:29:44.236Z,10.20
2018-11-03T12:30:44.248Z,10.30
2018-11-03T12:31:44.259Z,10.50
2018-11-03T12:32:44.269Z,9.90
2018-11-03T12:33:44.281Z,9.90
2018-11-03T12:34:44.291Z,10.90
2018-11-03T12:35:44.303Z,11.20
2018-11-03T12:36:44.325Z,11.60
2018-11-03T12:37:44.546Z,11.80
2018-11-03T12:38:44.476Z,11.90
2018-11-03T12:39:44.574Z,11.70
2018-11-03T12:40:44.488Z,11.20
2018-11-03T12:41:44.369Z,10.80
2018-11-03T12:42:44.383Z,10.30
2018-11-03T12:43:44.389Z,10.80
2018-11-03T12:44:44.402Z,10.10
2018-11-03T12:45:44.415Z,10.40
2018-11-03T12:46:44.436Z,10.90
2018-11-03T12:47:44.435Z,10.60
2018-11-03T12:48:44.447Z,10.00
2018-11-03T12:49:44.460Z,9.20
2018-11-03T12:50:44.501Z,9.60
2018-11-03T12:51:44.480Z,9.50
2018-11-03T12:52:44.489Z,9.40
2018-11-03T12:53:44.507Z,9.10
2018-11-03T12:54:44.513Z,9.20
2018-11-03T12:55:44.522Z,9.30
2018-11-03T12:56:44.593Z,9.20
2018-11-03T12:57:44.545Z,10.20
2018-11-03T12:58:44.835Z,10.70
2018-11-03T12:59:44.601Z,10.70
2018-11-03T13:00:44.578Z,10.90
2018-11-03T13:01:44.593Z,11.60
2018-11-03T13:02:44.605Z,10.50
2018-11-03T13:03:44.612Z,11.10
2018-11-03T13:04:44.623Z,11.00
2018-11-03T13:05:44.636Z,12.00
2018-11-03T13:06:44.646Z,12.60
2018-11-03T13:07:44.711Z,12.60
2018-11-03T13:08:44.922Z,12.20
2018-11-03T13:10:45.096Z,11.90
2018-11-03T13:11:44.716Z,11.00
2018-11-03T13:12:44.712Z,11.10
2018-11-03T13:13:44.727Z,11.30
2018-11-03T13:14:44.736Z,11.90
2018-11-03T13:15:44.759Z,12.00
2018-11-03T13:16:44.756Z,11.90
2018-11-03T13:17:44.770Z,11.00
2018-11-03T13:18:44.778Z,11.50
2018-11-03T13:19:44.788Z,10.90
2018-11-03T13:20:44.803Z,10.60
2018-11-03T13:21:44.834Z,10.80
2018-11-03T13:22:44.936Z,12.50
2018-11-03T13:23:44.847Z,12.10
2018-11-03T13:24:44.855Z,11.90
2018-11-03T13:25:44.857Z,12.10
2018-11-03T13:26:44.869Z,12.90